sensor_id;sensor_type;location;lat;lon;timestamp;pressure;altitude;pressure_sealevel;temperature
40624;BMP280;26325;48.594;11.650;2023-12-04T12:27:42;96287.19;;;-3.34
40624;BMP280;26325;48.594;11.650;2023-12-04T12:30:11;96282.84;;;-3.48
40624;BMP280;26325;48.594;11.650;2023-12-04T12:32:37;96282.03;;;-3.48
40624;BMP280;26325;48.594;11.650;2023-12-04T12:35:07;96271.06;;;-3.63
40624;BMP280;26325;48.594;11.650;2023-12-04T12:37:43;96279.56;;;-3.64
40624;BMP280;26325;48.594;11.650;2023-12-04T12:40:10;96281.94;;;-3.78
40624;BMP280;26325;48.594;11.650;2023-12-04T12:42:35;96292.66;;;-3.68
40624;BMP280;26325;48.594;11.650;2023-12-04T12:45:04;96284.94;;;-3.67
40624;BMP280;26325;48.594;11.650;2023-12-04T12:47:30;96293.00;;;-3.71
40624;BMP280;26325;48.594;11.650;2023-12-04T12:50:08;96290.50;;;-3.79
40624;BMP280;26325;48.594;11.650;2023-12-04T12:52:36;96282.44;;;-3.82
40624;BMP280;26325;48.594;11.650;2023-12-04T12:55:08;96280.19;;;-3.70
40624;BMP280;26325;48.594;11.650;2023-12-04T12:57:36;96271.66;;;-3.53
40624;BMP280;26325;48.594;11.650;2023-12-04T13:00:06;96256.69;;;-3.62
40624;BMP280;26325;48.594;11.650;2023-12-04T13:02:35;96262.84;;;-3.65
40624;BMP280;26325;48.594;11.650;2023-12-04T13:05:04;96269.66;;;-3.81
40624;BMP280;26325;48.594;11.650;2023-12-04T13:07:33;96264.13;;;-3.77
40624;BMP280;26325;48.594;11.650;2023-12-04T13:10:06;96255.28;;;-3.73
40624;BMP280;26325;48.594;11.650;2023-12-04T13:12:33;96261.44;;;-3.67
40624;BMP280;26325;48.594;11.650;2023-12-04T13:15:01;96265.47;;;-3.51
40624;BMP280;26325;48.594;11.650;2023-12-04T13:17:29;96264.19;;;-3.39
40624;BMP280;26325;48.594;11.650;2023-12-04T13:19:57;96264.06;;;-3.45
40624;BMP280;26325;48.594;11.650;2023-12-04T13:22:23;96255.19;;;-3.42
40624;BMP280;26325;48.594;11.650;2023-12-04T13:24:51;96249.59;;;-3.67
40624;BMP280;26325;48.594;11.650;2023-12-04T13:27:21;96249.28;;;-3.64
40624;BMP280;26325;48.594;11.650;2023-12-04T13:29:51;96242.97;;;-3.68
40624;BMP280;26325;48.594;11.650;2023-12-04T13:32:17;96244.44;;;-3.36
40624;BMP280;26325;48.594;11.650;2023-12-04T13:34:50;96243.66;;;-3.44
40624;BMP280;26325;48.594;11.650;2023-12-04T13:37:15;96243.13;;;-3.24
40624;BMP280;26325;48.594;11.650;2023-12-04T13:39:46;96231.06;;;-3.14
40624;BMP280;26325;48.594;11.650;2023-12-04T13:42:16;96206.53;;;-3.28
40624;BMP280;26325;48.594;11.650;2023-12-04T13:45:01;96205.94;;;-3.38
40624;BMP280;26325;48.594;11.650;2023-12-04T13:47:27;96215.16;;;-3.60
40624;BMP280;26325;48.594;11.650;2023-12-04T13:49:58;96220.94;;;-3.44
40624;BMP280;26325;48.594;11.650;2023-12-04T13:52:26;96213.41;;;-3.52
40624;BMP280;26325;48.594;11.650;2023-12-04T13:55:02;96212.09;;;-3.40
40624;BMP280;26325;48.594;11.650;2023-12-04T13:57:39;96192.69;;;-3.40
40624;BMP280;26325;48.594;11.650;2023-12-04T14:00:22;96189.63;;;-3.57
40624;BMP280;26325;48.594;11.650;2023-12-04T14:02:52;96187.69;;;-3.93
40624;BMP280;26325;48.594;11.650;2023-12-04T14:05:33;96180.91;;;-3.92
40624;BMP280;26325;48.594;11.650;2023-12-04T14:08:02;96177.84;;;-3.72
40624;BMP280;26325;48.594;11.650;2023-12-04T14:10:30;96156.91;;;-3.80
40624;BMP280;26325;48.594;11.650;2023-12-04T14:13:05;96158.06;;;-3.99
40624;BMP280;26325;48.594;11.650;2023-12-04T14:15:31;96164.50;;;-3.88
40624;BMP280;26325;48.594;11.650;2023-12-04T14:17:57;96167.06;;;-3.96
40624;BMP280;26325;48.594;11.650;2023-12-04T14:20:25;96163.56;;;-3.87
40624;BMP280;26325;48.594;11.650;2023-12-04T14:22:53;96169.00;;;-3.76
40624;BMP280;26325;48.594;11.650;2023-12-04T14:25:20;96163.34;;;-3.70
40624;BMP280;26325;48.594;11.650;2023-12-04T14:27:45;96170.47;;;-3.81
40624;BMP280;26325;48.594;11.650;2023-12-04T14:30:11;96182.75;;;-3.71
40624;BMP280;26325;48.594;11.650;2023-12-04T14:32:39;96201.59;;;-3.59
40624;BMP280;26325;48.594;11.650;2023-12-04T14:35:07;96198.13;;;-3.58
40624;BMP280;26325;48.594;11.650;2023-12-04T14:37:39;96187.38;;;-3.52
40624;BMP280;26325;48.594;11.650;2023-12-04T14:40:05;96181.88;;;-3.56
40624;BMP280;26325;48.594;11.650;2023-12-04T14:42:32;96167.97;;;-3.52
40624;BMP280;26325;48.594;11.650;2023-12-04T14:44:58;96160.72;;;-3.55
40624;BMP280;26325;48.594;11.650;2023-12-04T14:47:23;96145.16;;;-3.66
40624;BMP280;26325;48.594;11.650;2023-12-04T14:49:50;96140.91;;;-3.65
40624;BMP280;26325;48.594;11.650;2023-12-04T14:52:21;96151.50;;;-3.78
40624;BMP280;26325;48.594;11.650;2023-12-04T14:54:50;96143.00;;;-3.77
40624;BMP280;26325;48.594;11.650;2023-12-04T15:00:37;96124.81;;;-4.10
40624;BMP280;26325;48.594;11.650;2023-12-04T15:03:28;96122.94;;;-4.08
40624;BMP280;26325;48.594;11.650;2023-12-04T15:06:17;96115.06;;;-4.13
40624;BMP280;26325;48.594;11.650;2023-12-04T15:09:00;96100.81;;;-4.43
40624;BMP280;26325;48.594;11.650;2023-12-04T15:11:50;96121.16;;;-4.53
40624;BMP280;26325;48.594;11.650;2023-12-04T15:14:36;96142.59;;;-4.49
40624;BMP280;26325;48.594;11.650;2023-12-04T15:17:26;96135.34;;;-4.59
40624;BMP280;26325;48.594;11.650;2023-12-04T15:20:18;96149.84;;;-4.69
40624;BMP280;26325;48.594;11.650;2023-12-04T15:22:54;96140.09;;;-4.80
40624;BMP280;26325;48.594;11.650;2023-12-04T15:25:22;96143.25;;;-4.86
40624;BMP280;26325;48.594;11.650;2023-12-04T15:27:48;96141.97;;;-4.97
40624;BMP280;26325;48.594;11.650;2023-12-04T15:30:16;96127.19;;;-4.93
40624;BMP280;26325;48.594;11.650;2023-12-04T15:32:44;96132.53;;;-5.03
40624;BMP280;26325;48.594;11.650;2023-12-04T15:35:11;96147.78;;;-5.13
40624;BMP280;26325;48.594;11.650;2023-12-04T15:37:37;96155.97;;;-5.18
40624;BMP280;26325;48.594;11.650;2023-12-04T15:40:07;96169.16;;;-5.24
40624;BMP280;26325;48.594;11.650;2023-12-04T15:42:34;96170.94;;;-5.25
40624;BMP280;26325;48.594;11.650;2023-12-04T15:45:00;96160.53;;;-5.22
40624;BMP280;26325;48.594;11.650;2023-12-04T15:47:26;96153.59;;;-5.20
40624;BMP280;26325;48.594;11.650;2023-12-04T15:49:51;96139.59;;;-5.22
40624;BMP280;26325;48.594;11.650;2023-12-04T15:52:17;96138.03;;;-5.15
40624;BMP280;26325;48.594;11.650;2023-12-04T15:58:25;96138.50;;;-5.20
40624;BMP280;26325;48.594;11.650;2023-12-04T16:00:51;96137.72;;;-5.20
40624;BMP280;26325;48.594;11.650;2023-12-04T16:03:17;96145.25;;;-5.28
40624;BMP280;26325;48.594;11.650;2023-12-04T16:09:23;96124.94;;;-5.42
40624;BMP280;26325;48.594;11.650;2023-12-04T16:11:50;96120.69;;;-5.42
40624;BMP280;26325;48.594;11.650;2023-12-04T16:14:18;96110.16;;;-5.37
40624;BMP280;26325;48.594;11.650;2023-12-04T16:16:48;96110.16;;;-5.45
40624;BMP280;26325;48.594;11.650;2023-12-04T16:19:18;96101.66;;;-5.36
40624;BMP280;26325;48.594;11.650;2023-12-04T16:21:43;96098.50;;;-5.54
40624;BMP280;26325;48.594;11.650;2023-12-04T16:24:10;96105.41;;;-5.48
40624;BMP280;26325;48.594;11.650;2023-12-04T16:26:37;96107.63;;;-5.45
40624;BMP280;26325;48.594;11.650;2023-12-04T16:29:10;96088.44;;;-5.38
40624;BMP280;26325;48.594;11.650;2023-12-04T16:31:38;96104.19;;;-5.36
40624;BMP280;26325;48.594;11.650;2023-12-04T16:34:05;96087.81;;;-5.32
40624;BMP280;26325;48.594;11.650;2023-12-04T16:36:31;96081.38;;;-5.27
40624;BMP280;26325;48.594;11.650;2023-12-04T16:38:59;96073.97;;;-5.21
40624;BMP280;26325;48.594;11.650;2023-12-04T16:41:25;96070.53;;;-5.20
40624;BMP280;26325;48.594;11.650;2023-12-04T16:43:53;96077.00;;;-5.17
40624;BMP280;26325;48.594;11.650;2023-12-04T16:46:18;96099.16;;;-5.13
40624;BMP280;26325;48.594;11.650;2023-12-04T16:48:44;96083.41;;;-5.23
40624;BMP280;26325;48.594;11.650;2023-12-04T16:51:09;96092.25;;;-5.27
40624;BMP280;26325;48.594;11.650;2023-12-04T16:53:35;96089.72;;;-5.27
40624;BMP280;26325;48.594;11.650;2023-12-04T16:56:01;96074.91;;;-5.22
40624;BMP280;26325;48.594;11.650;2023-12-04T16:58:26;96068.63;;;-5.18
40624;BMP280;26325;48.594;11.650;2023-12-04T17:00:54;96065.34;;;-5.26
40624;BMP280;26325;48.594;11.650;2023-12-04T17:03:19;96059.81;;;-5.30
40624;BMP280;26325;48.594;11.650;2023-12-04T17:05:50;96055.41;;;-5.28
40624;BMP280;26325;48.594;11.650;2023-12-04T17:08:15;96057.78;;;-5.26
40624;BMP280;26325;48.594;11.650;2023-12-04T17:10:41;96052.75;;;-5.26
40624;BMP280;26325;48.594;11.650;2023-12-04T17:13:06;96052.56;;;-5.32
40624;BMP280;26325;48.594;11.650;2023-12-04T17:15:32;96065.78;;;-5.38
40624;BMP280;26325;48.594;11.650;2023-12-04T17:18:00;96058.25;;;-5.38
40624;BMP280;26325;48.594;11.650;2023-12-04T17:20:25;96055.41;;;-5.35
40624;BMP280;26325;48.594;11.650;2023-12-04T17:22:52;96053.50;;;-5.41
40624;BMP280;26325;48.594;11.650;2023-12-04T17:25:20;96040.13;;;-5.50
40624;BMP280;26325;48.594;11.650;2023-12-04T17:27:45;96035.91;;;-5.49
40624;BMP280;26325;48.594;11.650;2023-12-04T17:30:11;96021.28;;;-5.53
40624;BMP280;26325;48.594;11.650;2023-12-04T17:32:37;96031.50;;;-5.55
40624;BMP280;26325;48.594;11.650;2023-12-04T17:35:06;96028.97;;;-5.63
40624;BMP280;26325;48.594;11.650;2023-12-04T17:37:31;96028.53;;;-5.66
40624;BMP280;26325;48.594;11.650;2023-12-04T17:39:57;96034.66;;;-5.69
40624;BMP280;26325;48.594;11.650;2023-12-04T17:42:25;96039.69;;;-5.69
40624;BMP280;26325;48.594;11.650;2023-12-04T17:44:53;96043.94;;;-5.77
40624;BMP280;26325;48.594;11.650;2023-12-04T17:47:18;96055.72;;;-5.77
40624;BMP280;26325;48.594;11.650;2023-12-04T17:49:48;96041.88;;;-5.73
40624;BMP280;26325;48.594;11.650;2023-12-04T17:52:14;96034.19;;;-5.72
40624;BMP280;26325;48.594;11.650;2023-12-04T17:54:39;96030.56;;;-5.77
40624;BMP280;26325;48.594;11.650;2023-12-04T17:57:07;96025.34;;;-5.84
40624;BMP280;26325;48.594;11.650;2023-12-04T17:59:33;96005.41;;;-5.85
40624;BMP280;26325;48.594;11.650;2023-12-04T18:01:58;96011.69;;;-5.89
40624;BMP280;26325;48.594;11.650;2023-12-04T18:04:24;95995.34;;;-5.85
40624;BMP280;26325;48.594;11.650;2023-12-04T18:06:52;95990.00;;;-5.74
40624;BMP280;26325;48.594;11.650;2023-12-04T18:09:17;95982.16;;;-5.71
40624;BMP280;26325;48.594;11.650;2023-12-04T18:11:45;95991.13;;;-5.69
40624;BMP280;26325;48.594;11.650;2023-12-04T18:14:11;95988.41;;;-5.60
40624;BMP280;26325;48.594;11.650;2023-12-04T18:16:40;95990.75;;;-5.58
40624;BMP280;26325;48.594;11.650;2023-12-04T18:19:08;95989.34;;;-5.53
40624;BMP280;26325;48.594;11.650;2023-12-04T18:21:36;96001.00;;;-5.52
40624;BMP280;26325;48.594;11.650;2023-12-04T18:26:30;95998.78;;;-5.47
40624;BMP280;26325;48.594;11.650;2023-12-04T18:28:58;95993.09;;;-5.41
40624;BMP280;26325;48.594;11.650;2023-12-04T18:31:24;96025.69;;;-5.40
40624;BMP280;26325;48.594;11.650;2023-12-04T18:33:52;96038.59;;;-5.51
40624;BMP280;26325;48.594;11.650;2023-12-04T18:36:18;96030.06;;;-5.50
40624;BMP280;26325;48.594;11.650;2023-12-04T18:38:53;96036.84;;;-5.50
40624;BMP280;26325;48.594;11.650;2023-12-04T18:41:21;96024.72;;;-5.47
40624;BMP280;26325;48.594;11.650;2023-12-04T18:43:49;96023.16;;;-5.40
40624;BMP280;26325;48.594;11.650;2023-12-04T18:46:15;96024.09;;;-5.41
40624;BMP280;26325;48.594;11.650;2023-12-04T18:48:45;96012.31;;;-5.48
40624;BMP280;26325;48.594;11.650;2023-12-04T18:51:12;96016.41;;;-5.55
40624;BMP280;26325;48.594;11.650;2023-12-04T18:53:40;96004.75;;;-5.64
40624;BMP280;26325;48.594;11.650;2023-12-04T18:56:11;96008.69;;;-5.61
40624;BMP280;26325;48.594;11.650;2023-12-04T18:58:37;96005.09;;;-5.67
40624;BMP280;26325;48.594;11.650;2023-12-04T19:01:03;95999.75;;;-5.87
40624;BMP280;26325;48.594;11.650;2023-12-04T19:03:28;95998.78;;;-5.94
40624;BMP280;26325;48.594;11.650;2023-12-04T19:05:56;95998.00;;;-6.02
40624;BMP280;26325;48.594;11.650;2023-12-04T19:08:22;96010.69;;;-6.11
40624;BMP280;26325;48.594;11.650;2023-12-04T19:10:47;96016.66;;;-6.20
40624;BMP280;26325;48.594;11.650;2023-12-04T19:13:15;96012.28;;;-6.51
40624;BMP280;26325;48.594;11.650;2023-12-04T19:15:43;96021.69;;;-6.53
40624;BMP280;26325;48.594;11.650;2023-12-04T19:20:34;96025.28;;;-6.63
40624;BMP280;26325;48.594;11.650;2023-12-04T19:23:02;96024.59;;;-6.73
40624;BMP280;26325;48.594;11.650;2023-12-04T19:25:29;96027.13;;;-6.73
40624;BMP280;26325;48.594;11.650;2023-12-04T19:28:01;96024.25;;;-6.78
40624;BMP280;26325;48.594;11.650;2023-12-04T19:30:28;96018.44;;;-6.78
40624;BMP280;26325;48.594;11.650;2023-12-04T19:32:56;96002.31;;;-7.01
40624;BMP280;26325;48.594;11.650;2023-12-04T19:35:22;96002.50;;;-6.94
40624;BMP280;26325;48.594;11.650;2023-12-04T19:37:47;96003.00;;;-6.91
40624;BMP280;26325;48.594;11.650;2023-12-04T19:40:15;96011.91;;;-6.96
40624;BMP280;26325;48.594;11.650;2023-12-04T19:42:41;95999.06;;;-6.93
40624;BMP280;26325;48.594;11.650;2023-12-04T19:45:10;95987.19;;;-6.83
40624;BMP280;26325;48.594;11.650;2023-12-04T19:47:37;95988.41;;;-6.87
40624;BMP280;26325;48.594;11.650;2023-12-04T19:50:07;95977.03;;;-6.74
40624;BMP280;26325;48.594;11.650;2023-12-04T19:52:38;95974.53;;;-6.66
40624;BMP280;26325;48.594;11.650;2023-12-04T19:55:06;95966.09;;;-6.58
40624;BMP280;26325;48.594;11.650;2023-12-04T19:57:34;95961.09;;;-6.50
40624;BMP280;26325;48.594;11.650;2023-12-04T20:00:02;95961.91;;;-6.42
40624;BMP280;26325;48.594;11.650;2023-12-04T20:02:29;95959.25;;;-6.40
40624;BMP280;26325;48.594;11.650;2023-12-04T20:04:54;95956.59;;;-6.31
40624;BMP280;26325;48.594;11.650;2023-12-04T20:07:20;95959.44;;;-6.26
40624;BMP280;26325;48.594;11.650;2023-12-04T20:09:47;95953.16;;;-6.22
40624;BMP280;26325;48.594;11.650;2023-12-04T20:12:13;95949.38;;;-6.18
40624;BMP280;26325;48.594;11.650;2023-12-04T20:14:40;95951.91;;;-6.10
40624;BMP280;26325;48.594;11.650;2023-12-04T20:17:06;95956.97;;;-6.03
40624;BMP280;26325;48.594;11.650;2023-12-04T20:19:33;95943.78;;;-5.97
40624;BMP280;26325;48.594;11.650;2023-12-04T20:22:10;95951.47;;;-5.90
40624;BMP280;26325;48.594;11.650;2023-12-04T20:24:45;95953.19;;;-5.83
40624;BMP280;26325;48.594;11.650;2023-12-04T20:27:13;95948.03;;;-5.74
40624;BMP280;26325;48.594;11.650;2023-12-04T20:29:39;95937.34;;;-5.68
40624;BMP280;26325;48.594;11.650;2023-12-04T20:32:10;95950.53;;;-5.66
40624;BMP280;26325;48.594;11.650;2023-12-04T20:34:43;95941.06;;;-5.64
40624;BMP280;26325;48.594;11.650;2023-12-04T20:37:08;95938.41;;;-5.63
40624;BMP280;26325;48.594;11.650;2023-12-04T20:39:38;95939.34;;;-5.56
40624;BMP280;26325;48.594;11.650;2023-12-04T20:42:07;95941.06;;;-5.49
40624;BMP280;26325;48.594;11.650;2023-12-04T20:44:36;95947.19;;;-5.43
40624;BMP280;26325;48.594;11.650;2023-12-04T20:47:03;95944.34;;;-5.40
40624;BMP280;26325;48.594;11.650;2023-12-04T20:49:31;95933.81;;;-5.36
40624;BMP280;26325;48.594;11.650;2023-12-04T20:52:00;95936.16;;;-5.27
40624;BMP280;26325;48.594;11.650;2023-12-04T20:57:52;95935.50;;;-5.21
40624;BMP280;26325;48.594;11.650;2023-12-04T21:00:18;95937.22;;;-5.13
40624;BMP280;26325;48.594;11.650;2023-12-04T21:02:44;95926.22;;;-5.13
40624;BMP280;26325;48.594;11.650;2023-12-04T21:05:11;95925.09;;;-5.10
40624;BMP280;26325;48.594;11.650;2023-12-04T21:07:39;95919.72;;;-5.07
40624;BMP280;26325;48.594;11.650;2023-12-04T21:10:20;95920.06;;;-5.10
40624;BMP280;26325;48.594;11.650;2023-12-04T21:12:58;95905.75;;;-5.10
40624;BMP280;26325;48.594;11.650;2023-12-04T21:15:45;95906.34;;;-5.00
40624;BMP280;26325;48.594;11.650;2023-12-04T21:18:22;95909.03;;;-5.01
40624;BMP280;26325;48.594;11.650;2023-12-04T21:20:52;95915.97;;;-5.03
40624;BMP280;26325;48.594;11.650;2023-12-04T21:23:17;95909.66;;;-4.99
40624;BMP280;26325;48.594;11.650;2023-12-04T21:26:08;95902.22;;;-4.93
40624;BMP280;26325;48.594;11.650;2023-12-04T21:29:02;95896.69;;;-4.89
40624;BMP280;26325;48.594;11.650;2023-12-04T21:31:27;95896.38;;;-4.86
40624;BMP280;26325;48.594;11.650;2023-12-04T21:33:59;95891.03;;;-4.83
40624;BMP280;26325;48.594;11.650;2023-12-04T21:36:27;95896.66;;;-4.81
40624;BMP280;26325;48.594;11.650;2023-12-04T21:38:56;95883.06;;;-4.72
40624;BMP280;26325;48.594;11.650;2023-12-04T21:41:27;95874.91;;;-4.74
40624;BMP280;26325;48.594;11.650;2023-12-04T21:44:22;95874.72;;;-4.65
40624;BMP280;26325;48.594;11.650;2023-12-04T21:47:02;95863.41;;;-4.47
40624;BMP280;26325;48.594;11.650;2023-12-04T21:49:28;95850.22;;;-4.49
40624;BMP280;26325;48.594;11.650;2023-12-04T21:51:58;95829.38;;;-4.43
40624;BMP280;26325;48.594;11.650;2023-12-04T21:54:26;95834.88;;;-4.47
40624;BMP280;26325;48.594;11.650;2023-12-04T21:56:52;95810.03;;;-4.28
40624;BMP280;26325;48.594;11.650;2023-12-04T21:59:17;95793.84;;;-4.34
40624;BMP280;26325;48.594;11.650;2023-12-04T22:01:43;95796.91;;;-4.46
40624;BMP280;26325;48.594;11.650;2023-12-04T22:04:12;95791.03;;;-4.38
40624;BMP280;26325;48.594;11.650;2023-12-04T22:06:38;95790.72;;;-4.36
40624;BMP280;26325;48.594;11.650;2023-12-04T22:09:03;95792.50;;;-4.22
40624;BMP280;26325;48.594;11.650;2023-12-04T22:11:36;95792.06;;;-4.25
40624;BMP280;26325;48.594;11.650;2023-12-04T22:14:04;95816.03;;;-4.29
40624;BMP280;26325;48.594;11.650;2023-12-04T22:16:29;95827.03;;;-4.22
40624;BMP280;26325;48.594;11.650;2023-12-04T22:18:57;95830.75;;;-4.18
40624;BMP280;26325;48.594;11.650;2023-12-04T22:21:22;95824.59;;;-4.16
40624;BMP280;26325;48.594;11.650;2023-12-04T22:23:48;95836.88;;;-4.13
40624;BMP280;26325;48.594;11.650;2023-12-04T22:26:17;95830.38;;;-4.08
40624;BMP280;26325;48.594;11.650;2023-12-04T22:28:42;95816.41;;;-3.96
40624;BMP280;26325;48.594;11.650;2023-12-04T22:31:11;95826.28;;;-3.73
40624;BMP280;26325;48.594;11.650;2023-12-04T22:33:39;95821.78;;;-3.63
40624;BMP280;26325;48.594;11.650;2023-12-04T22:36:07;95831.25;;;-3.65
40624;BMP280;26325;48.594;11.650;2023-12-04T22:38:32;95818.34;;;-3.70
40624;BMP280;26325;48.594;11.650;2023-12-04T22:41:00;95820.09;;;-3.70
40624;BMP280;26325;48.594;11.650;2023-12-04T22:43:27;95812.53;;;-3.70
40624;BMP280;26325;48.594;11.650;2023-12-04T22:45:53;95806.34;;;-3.68
40624;BMP280;26325;48.594;11.650;2023-12-04T22:48:19;95810.97;;;-3.71
40624;BMP280;26325;48.594;11.650;2023-12-04T22:50:45;95813.50;;;-3.57
40624;BMP280;26325;48.594;11.650;2023-12-04T22:53:18;95822.88;;;-3.65
40624;BMP280;26325;48.594;11.650;2023-12-04T22:55:49;95810.28;;;-3.51
40624;BMP280;26325;48.594;11.650;2023-12-04T22:58:17;95790.84;;;-3.51
40624;BMP280;26325;48.594;11.650;2023-12-04T23:00:50;95772.16;;;-3.42
40624;BMP280;26325;48.594;11.650;2023-12-04T23:03:16;95757.84;;;-3.35
40624;BMP280;26325;48.594;11.650;2023-12-04T23:05:52;95746.22;;;-3.36
40624;BMP280;26325;48.594;11.650;2023-12-04T23:08:21;95752.38;;;-3.39
40624;BMP280;26325;48.594;11.650;2023-12-04T23:10:52;95752.81;;;-3.49
40624;BMP280;26325;48.594;11.650;2023-12-04T23:13:18;95752.13;;;-3.43
40624;BMP280;26325;48.594;11.650;2023-12-04T23:15:44;95754.63;;;-3.43
40624;BMP280;26325;48.594;11.650;2023-12-04T23:18:12;95743.16;;;-3.32
40624;BMP280;26325;48.594;11.650;2023-12-04T23:20:37;95744.97;;;-3.26
40624;BMP280;26325;48.594;11.650;2023-12-04T23:23:03;95756.13;;;-3.21
40624;BMP280;26325;48.594;11.650;2023-12-04T23:25:44;95765.66;;;-3.02
40624;BMP280;26325;48.594;11.650;2023-12-04T23:28:10;95765.44;;;-3.21
40624;BMP280;26325;48.594;11.650;2023-12-04T23:30:38;95765.59;;;-3.23
40624;BMP280;26325;48.594;11.650;2023-12-04T23:33:10;95764.81;;;-3.23
40624;BMP280;26325;48.594;11.650;2023-12-04T23:35:37;95767.59;;;-3.18
40624;BMP280;26325;48.594;11.650;2023-12-04T23:38:04;95757.06;;;-3.22
40624;BMP280;26325;48.594;11.650;2023-12-04T23:40:30;95761.84;;;-3.12
40624;BMP280;26325;48.594;11.650;2023-12-04T23:42:56;95775.88;;;-3.10
40624;BMP280;26325;48.594;11.650;2023-12-04T23:45:21;95770.03;;;-3.10
40624;BMP280;26325;48.594;11.650;2023-12-04T23:47:49;95768.59;;;-2.99
40624;BMP280;26325;48.594;11.650;2023-12-04T23:50:15;95755.97;;;-2.99
40624;BMP280;26325;48.594;11.650;2023-12-04T23:52:40;95750.91;;;-2.99
40624;BMP280;26325;48.594;11.650;2023-12-04T23:55:06;95753.09;;;-2.96
40624;BMP280;26325;48.594;11.650;2023-12-04T23:57:32;95757.66;;;-3.05
